createdAt,value
2022-12-14T00:01:25.497Z,99186.03
2022-12-14T00:03:53.246Z,99168.03
2022-12-14T00:06:27.820Z,99171.47
2022-12-14T00:08:57.056Z,99177.50
2022-12-14T00:11:24.917Z,99174.00
2022-12-14T00:13:57.213Z,99178.28
2022-12-14T00:16:25.568Z,99176.47
2022-12-14T00:18:54.023Z,99174.75
2022-12-14T00:21:21.686Z,99158.59
2022-12-14T00:23:50.195Z,99159.44
2022-12-14T00:26:19.796Z,99153.41
2022-12-14T00:28:48.049Z,99157.78
2022-12-14T00:31:15.361Z,99149.22
2022-12-14T00:33:42.261Z,99162.06
2022-12-14T00:36:10.501Z,99151.75
2022-12-14T00:38:37.953Z,99146.72
2022-12-14T00:41:04.723Z,99144.25
2022-12-14T00:43:32.187Z,99133.81
2022-12-14T00:45:58.757Z,99116.81
2022-12-14T00:48:27.142Z,99115.00
2022-12-14T00:50:55.489Z,99112.44
2022-12-14T00:53:23.294Z,99115.81
2022-12-14T00:55:50.000Z,99116.66
2022-12-14T00:58:19.369Z,99109.88
2022-12-14T01:00:48.223Z,99108.25
2022-12-14T01:03:15.742Z,99115.88
2022-12-14T01:05:48.965Z,99118.44
2022-12-14T01:08:16.081Z,99112.44
2022-12-14T01:10:42.520Z,99104.75
2022-12-14T01:13:11.151Z,99103.16
2022-12-14T01:15:38.109Z,99096.31
2022-12-14T01:18:04.762Z,99093.69
2022-12-14T01:20:31.827Z,99097.03
2022-12-14T01:22:58.355Z,99099.72
2022-12-14T01:25:25.157Z,99097.19
2022-12-14T01:27:52.208Z,99097.91
2022-12-14T01:30:19.217Z,99095.38
2022-12-14T01:33:05.686Z,99092.88
2022-12-14T01:35:52.075Z,99091.16
2022-12-14T01:38:38.939Z,99085.25
2022-12-14T01:41:32.777Z,99074.16
2022-12-14T01:44:19.144Z,99064.88
2022-12-14T01:47:15.619Z,99075.00
2022-12-14T01:49:52.038Z,99064.06
2022-12-14T01:52:29.006Z,99064.94
2022-12-14T01:55:10.992Z,99067.44
2022-12-14T01:57:52.680Z,99064.94
2022-12-14T02:00:20.576Z,99064.75
2022-12-14T02:02:59.028Z,99066.47
2022-12-14T02:05:26.158Z,99064.88
2022-12-14T02:07:55.333Z,99053.69
2022-12-14T02:10:26.346Z,99046.78
2022-12-14T02:13:02.745Z,99046.78
2022-12-14T02:15:30.500Z,99051.06
2022-12-14T02:17:57.536Z,99054.63
2022-12-14T02:20:29.262Z,99053.69
2022-12-14T02:23:17.554Z,99051.97
2022-12-14T02:26:00.402Z,99046.72
2022-12-14T02:29:06.331Z,99045.25
2022-12-14T02:31:48.857Z,99050.34
2022-12-14T02:34:38.379Z,99046.78
2022-12-14T02:37:14.407Z,99051.94
2022-12-14T02:39:49.924Z,99041.63
2022-12-14T02:42:26.160Z,99045.97
2022-12-14T02:45:09.366Z,99049.22
2022-12-14T02:47:41.025Z,99040.56
2022-12-14T02:50:25.904Z,99042.22
2022-12-14T02:53:10.583Z,99037.34
2022-12-14T02:55:46.348Z,99028.81
2022-12-14T02:58:32.336Z,99024.59
2022-12-14T03:00:59.741Z,99022.94
2022-12-14T03:03:27.817Z,99026.19
2022-12-14T03:05:56.518Z,99021.94
2022-12-14T03:08:25.255Z,99004.19
2022-12-14T03:11:06.874Z,99011.91
2022-12-14T03:13:43.928Z,98998.75
2022-12-14T03:16:22.354Z,98996.28
2022-12-14T03:18:54.651Z,99004.72
2022-12-14T03:21:36.334Z,99007.44
2022-12-14T03:24:12.598Z,99005.66
2022-12-14T03:26:48.003Z,99002.25
2022-12-14T03:29:21.956Z,98996.94
2022-12-14T03:31:54.949Z,99001.28
2022-12-14T03:34:28.216Z,98999.00
2022-12-14T03:37:16.056Z,99000.56
2022-12-14T03:39:45.141Z,98995.53
2022-12-14T03:42:21.277Z,98998.84
2022-12-14T03:45:27.296Z,98989.47
2022-12-14T03:48:24.783Z,98986.00
2022-12-14T03:51:00.157Z,98988.63
2022-12-14T03:53:47.441Z,98976.75
2022-12-14T03:56:34.818Z,98967.44
2022-12-14T03:59:11.519Z,98970.72
2022-12-14T04:01:46.979Z,98960.50
2022-12-14T04:04:26.519Z,98953.53
2022-12-14T04:06:56.977Z,98956.75
2022-12-14T04:09:42.555Z,98959.63
2022-12-14T04:12:42.603Z,98957.84
2022-12-14T04:15:35.585Z,98953.44
2022-12-14T04:18:25.073Z,98954.97
2022-12-14T04:20:58.521Z,98953.38
2022-12-14T04:24:06.674Z,98948.25
2022-12-14T04:26:39.460Z,98930.22
2022-12-14T04:29:32.464Z,98937.84
2022-12-14T04:32:08.049Z,98926.06
2022-12-14T04:34:35.920Z,98921.00
2022-12-14T04:37:09.490Z,98919.53
2022-12-14T04:39:41.079Z,98913.56
2022-12-14T04:42:10.327Z,98913.31
2022-12-14T04:44:42.785Z,98917.66
2022-12-14T04:47:13.625Z,98932.91
2022-12-14T04:49:49.222Z,98957.69
2022-12-14T04:52:21.327Z,98948.00
2022-12-14T04:54:56.904Z,98944.84
2022-12-14T04:57:35.933Z,98947.44
2022-12-14T05:00:05.960Z,98949.75
2022-12-14T05:03:01.036Z,98957.03
2022-12-14T05:05:39.702Z,98955.03
2022-12-14T05:08:18.389Z,98940.50
2022-12-14T05:10:50.803Z,98934.09
2022-12-14T05:13:36.060Z,98938.28
2022-12-14T05:16:03.330Z,98933.69
2022-12-14T05:18:29.912Z,98923.75
2022-12-14T05:20:56.814Z,98923.72
2022-12-14T05:23:23.558Z,98922.97
2022-12-14T05:25:50.030Z,98924.69
2022-12-14T05:28:17.038Z,98925.63
2022-12-14T05:30:48.732Z,98918.69
2022-12-14T05:33:19.655Z,98916.81
2022-12-14T05:35:46.490Z,98921.78
2022-12-14T05:38:13.603Z,98916.63
2022-12-14T05:40:40.030Z,98914.06
2022-12-14T05:43:08.137Z,98919.09
2022-12-14T05:45:34.852Z,98920.09
2022-12-14T05:48:01.364Z,98922.75
2022-12-14T05:50:28.004Z,98917.81
2022-12-14T05:52:55.738Z,98920.38
2022-12-14T05:55:22.344Z,98904.09
2022-12-14T05:57:48.768Z,98893.81
2022-12-14T06:00:15.633Z,98896.56
2022-12-14T06:02:42.174Z,98889.66
2022-12-14T06:05:08.991Z,98906.81
2022-12-14T06:07:35.882Z,98896.69
2022-12-14T06:10:02.551Z,98888.06
2022-12-14T06:12:29.560Z,98882.88
2022-12-14T06:14:56.655Z,98878.84
2022-12-14T06:17:23.106Z,98864.34
2022-12-14T06:19:50.311Z,98870.69
2022-12-14T06:22:17.998Z,98863.75
2022-12-14T06:24:44.854Z,98859.41
2022-12-14T06:27:11.299Z,98856.06
2022-12-14T06:29:37.885Z,98855.84
2022-12-14T06:32:04.507Z,98847.69
2022-12-14T06:34:36.747Z,98823.03
2022-12-14T06:37:06.179Z,98826.75
2022-12-14T06:39:32.722Z,98839.34
2022-12-14T06:41:59.466Z,98830.22
2022-12-14T06:44:26.180Z,98824.31
2022-12-14T06:46:55.935Z,98818.44
2022-12-14T06:49:22.876Z,98815.78
2022-12-14T06:51:49.562Z,98814.84
2022-12-14T06:54:17.848Z,98813.22
2022-12-14T06:56:46.863Z,98807.25
2022-12-14T06:59:14.736Z,98795.47
2022-12-14T07:01:42.388Z,98791.28
2022-12-14T07:04:09.702Z,98783.53
2022-12-14T07:06:39.504Z,98778.56
2022-12-14T07:09:07.562Z,98766.75
2022-12-14T07:11:34.509Z,98777.66
2022-12-14T07:14:03.124Z,98790.50
2022-12-14T07:16:29.742Z,98791.44
2022-12-14T07:18:57.126Z,98776.53
2022-12-14T07:21:24.586Z,98783.50
2022-12-14T07:23:52.363Z,98776.69
2022-12-14T07:26:27.470Z,98774.31
2022-12-14T07:28:54.698Z,98775.91
2022-12-14T07:31:23.786Z,98784.38
2022-12-14T07:33:54.057Z,98764.81
2022-12-14T07:36:22.463Z,98781.03
2022-12-14T07:38:50.890Z,98797.28
2022-12-14T07:41:25.997Z,98786.13
2022-12-14T07:43:54.544Z,98784.38
2022-12-14T07:46:24.173Z,98764.69
2022-12-14T07:48:53.233Z,98759.59
2022-12-14T07:51:22.676Z,98760.13
2022-12-14T07:53:50.102Z,98763.66
2022-12-14T07:56:25.359Z,98778.88
2022-12-14T07:58:52.608Z,98778.94
2022-12-14T08:01:23.417Z,98779.59
2022-12-14T08:03:53.384Z,98803.50
2022-12-14T08:06:21.433Z,98804.16
2022-12-14T08:08:48.553Z,98792.88
2022-12-14T08:11:17.938Z,98791.16
2022-12-14T08:13:44.723Z,98796.53
2022-12-14T08:16:14.131Z,98781.75
2022-12-14T08:18:41.252Z,98771.44
2022-12-14T08:21:10.022Z,98781.78
2022-12-14T08:23:41.420Z,98780.97
2022-12-14T08:26:08.025Z,98784.38
2022-12-14T08:28:35.802Z,98792.19
2022-12-14T08:31:11.287Z,98787.75
2022-12-14T08:33:39.501Z,98797.88
2022-12-14T08:36:14.082Z,98800.47
2022-12-14T08:38:41.437Z,98808.19
2022-12-14T08:41:10.517Z,98791.81
2022-12-14T08:43:37.639Z,98798.63
2022-12-14T08:46:05.083Z,98800.41
2022-12-14T08:48:31.981Z,98795.34
2022-12-14T08:51:07.251Z,98812.69
2022-12-14T08:53:35.183Z,98810.97
2022-12-14T08:56:23.250Z,98809.34
2022-12-14T08:58:52.500Z,98818.69
2022-12-14T09:01:25.731Z,98809.22
2022-12-14T09:03:56.965Z,98811.13
2022-12-14T09:06:27.994Z,98797.34
2022-12-14T09:08:55.376Z,98775.16
2022-12-14T09:11:22.804Z,98769.06
2022-12-14T09:13:54.126Z,98772.41
2022-12-14T09:16:21.988Z,98778.44
2022-12-14T09:18:49.504Z,98786.28
2022-12-14T09:21:16.537Z,98788.81
2022-12-14T09:23:43.682Z,98786.81
2022-12-14T09:26:18.846Z,98792.00
2022-12-14T09:28:51.762Z,98797.31
2022-12-14T09:31:21.245Z,98790.66
2022-12-14T09:33:48.170Z,98783.56
2022-12-14T09:36:21.150Z,98803.16
2022-12-14T09:38:51.916Z,98791.88
2022-12-14T09:41:34.330Z,98786.81
2022-12-14T09:44:19.767Z,98777.22
2022-12-14T09:47:11.037Z,98769.03
2022-12-14T09:49:46.583Z,98754.50
2022-12-14T09:52:17.636Z,98749.31
2022-12-14T09:54:45.977Z,98755.91
2022-12-14T09:57:35.136Z,98750.75
2022-12-14T10:00:02.075Z,98761.41
2022-12-14T10:02:52.959Z,98758.47
2022-12-14T10:05:31.736Z,98765.94
2022-12-14T10:08:03.114Z,98772.94
2022-12-14T10:10:42.784Z,98760.09
2022-12-14T10:13:15.481Z,98760.09
2022-12-14T10:16:00.316Z,98759.13
2022-12-14T10:19:02.965Z,98760.47
2022-12-14T10:21:50.141Z,98760.72
2022-12-14T10:24:27.736Z,98761.34
2022-12-14T10:26:55.637Z,98765.59
2022-12-14T10:29:32.832Z,98762.88
2022-12-14T10:32:21.280Z,98756.44
2022-12-14T10:34:48.305Z,98757.81
2022-12-14T10:37:35.914Z,98767.06
2022-12-14T10:40:15.490Z,98769.69
2022-12-14T10:42:49.618Z,98762.00
2022-12-14T10:45:40.232Z,98776.53
2022-12-14T10:48:29.811Z,98773.16
2022-12-14T10:51:08.276Z,98764.13
2022-12-14T10:53:44.661Z,98754.41
2022-12-14T10:56:19.271Z,98765.25
2022-12-14T10:59:17.910Z,98764.53
2022-12-14T11:01:46.800Z,98760.28
2022-12-14T11:04:36.092Z,98753.44
2022-12-14T11:07:08.789Z,98753.75
2022-12-14T11:09:37.073Z,98761.16
2022-12-14T11:12:25.984Z,98768.56
2022-12-14T11:15:01.947Z,98772.41
2022-12-14T11:17:35.952Z,98776.53
2022-12-14T11:20:24.371Z,98775.53
2022-12-14T11:22:52.766Z,98762.00
2022-12-14T11:25:30.412Z,98765.38
2022-12-14T11:28:00.100Z,98767.69
2022-12-14T11:30:29.209Z,98761.19
2022-12-14T11:32:55.932Z,98762.63
2022-12-14T11:35:23.018Z,98766.81
2022-12-14T11:37:50.789Z,98754.78
2022-12-14T11:40:27.797Z,98737.59
2022-12-14T11:43:01.949Z,98744.38
2022-12-14T11:45:36.067Z,98754.25
2022-12-14T11:48:14.768Z,98749.56
2022-12-14T11:50:43.142Z,98753.28
2022-12-14T11:53:12.609Z,98751.63
2022-12-14T11:55:44.176Z,98747.25
2022-12-14T11:58:23.955Z,98752.47
2022-12-14T12:00:55.385Z,98741.31
2022-12-14T12:03:31.131Z,98742.91
2022-12-14T12:06:10.943Z,98736.41
2022-12-14T12:08:40.232Z,98745.75
2022-12-14T12:11:19.610Z,98743.03
2022-12-14T12:13:51.402Z,98746.47
2022-12-14T12:16:22.095Z,98739.34
2022-12-14T12:18:54.667Z,98734.25
2022-12-14T12:21:24.233Z,98730.78
2022-12-14T12:24:20.949Z,98743.13
2022-12-14T12:26:57.387Z,98740.97
2022-12-14T12:29:35.085Z,98731.41
2022-12-14T12:32:10.260Z,98738.03
2022-12-14T12:34:54.223Z,98734.06
2022-12-14T12:37:47.520Z,98735.28
2022-12-14T12:40:34.985Z,98747.31
2022-12-14T12:43:25.429Z,98744.16
2022-12-14T12:45:59.671Z,98744.19
2022-12-14T12:48:32.286Z,98744.22
2022-12-14T12:51:04.434Z,98750.03
2022-12-14T12:53:39.006Z,98749.97
2022-12-14T12:56:14.713Z,98748.63
2022-12-14T12:58:50.614Z,98748.53
2022-12-14T13:01:36.146Z,98762.53
2022-12-14T13:04:06.644Z,98752.28
2022-12-14T13:06:44.423Z,98753.22
2022-12-14T13:09:35.219Z,98759.38
2022-12-14T13:12:05.487Z,98766.97
2022-12-14T13:14:37.291Z,98771.22
2022-12-14T13:17:07.895Z,98767.94
2022-12-14T13:19:52.543Z,98767.41
2022-12-14T13:22:31.174Z,98774.66
2022-12-14T13:25:03.271Z,98782.31
2022-12-14T13:28:16.526Z,98777.72
2022-12-14T13:31:27.791Z,98779.63
2022-12-14T13:34:03.588Z,98783.97
2022-12-14T13:37:14.522Z,98786.19
2022-12-14T13:39:50.798Z,98798.13
2022-12-14T13:42:51.923Z,98790.47
2022-12-14T13:45:23.042Z,98799.88
2022-12-14T13:47:54.655Z,98799.66
2022-12-14T13:50:40.667Z,98802.31
2022-12-14T13:53:16.354Z,98802.38
2022-12-14T13:55:49.324Z,98809.97
2022-12-14T13:58:32.168Z,98814.53
2022-12-14T14:01:02.436Z,98810.38
2022-12-14T14:03:35.364Z,98819.09
2022-12-14T14:06:11.694Z,98829.34
2022-12-14T14:08:42.913Z,98824.16
2022-12-14T14:11:36.798Z,98827.41
2022-12-14T14:14:46.744Z,98831.69
2022-12-14T14:17:28.202Z,98824.59
2022-12-14T14:19:57.960Z,98827.84
2022-12-14T14:22:28.933Z,98832.28
2022-12-14T14:25:02.066Z,98828.72
2022-12-14T14:27:37.537Z,98825.84
2022-12-14T14:30:32.722Z,98834.25
2022-12-14T14:33:27.314Z,98835.06
2022-12-14T14:35:49.709Z,98846.44
2022-12-14T14:38:30.963Z,98841.97
2022-12-14T14:41:18.021Z,98856.50
2022-12-14T14:44:00.164Z,98862.38
2022-12-14T14:46:41.351Z,98860.09
2022-12-14T14:49:22.937Z,98864.22
2022-12-14T14:51:50.517Z,98874.63
2022-12-14T14:54:56.137Z,98873.59
2022-12-14T14:57:33.323Z,98884.00
2022-12-14T15:00:06.385Z,98882.38
2022-12-14T15:02:38.534Z,98884.88
2022-12-14T15:05:33.020Z,98884.16
2022-12-14T15:07:56.023Z,98888.47
2022-12-14T15:10:36.578Z,98882.66
2022-12-14T15:13:09.349Z,98894.56
2022-12-14T15:15:43.027Z,98889.19
2022-12-14T15:18:23.732Z,98885.84
2022-12-14T15:20:58.011Z,98902.91
2022-12-14T15:23:25.683Z,98907.19
2022-12-14T15:26:01.675Z,98919.25
2022-12-14T15:28:29.815Z,98925.22
2022-12-14T15:30:58.288Z,98927.06
2022-12-14T15:33:35.533Z,98927.16
2022-12-14T15:36:14.180Z,98927.97
2022-12-14T15:38:51.223Z,98931.88
2022-12-14T15:41:18.755Z,98935.38
2022-12-14T15:43:48.326Z,98937.91
2022-12-14T15:46:25.745Z,98938.88
2022-12-14T15:49:21.557Z,98944.75
2022-12-14T15:51:49.017Z,98944.88
2022-12-14T15:54:22.277Z,98943.91
2022-12-14T15:56:53.108Z,98934.75
2022-12-14T15:59:29.508Z,98939.63
2022-12-14T16:02:23.819Z,98939.53
2022-12-14T16:04:52.152Z,98957.56
2022-12-14T16:07:28.267Z,98955.88
2022-12-14T16:09:58.773Z,98955.00
2022-12-14T16:12:42.761Z,98971.09
2022-12-14T16:15:19.428Z,98973.69
2022-12-14T16:17:46.352Z,98976.28
2022-12-14T16:20:43.971Z,98977.16
2022-12-14T16:23:14.686Z,98983.88
2022-12-14T16:25:51.548Z,98990.72
2022-12-14T16:28:22.068Z,98993.28
2022-12-14T16:31:00.688Z,99002.97
2022-12-14T16:33:29.332Z,99007.00
2022-12-14T16:36:25.568Z,99001.78
2022-12-14T16:39:02.807Z,99010.53
2022-12-14T16:41:42.339Z,99021.44
2022-12-14T16:44:22.859Z,99018.88
2022-12-14T16:47:15.515Z,99018.91
2022-12-14T16:49:55.443Z,99019.94
2022-12-14T16:52:40.143Z,99023.22
2022-12-14T16:55:09.830Z,99025.88
2022-12-14T16:57:40.378Z,99044.59
2022-12-14T17:00:21.357Z,99047.06
2022-12-14T17:02:58.233Z,99052.19
2022-12-14T17:05:28.581Z,99049.69
2022-12-14T17:07:55.021Z,99048.84
2022-12-14T17:10:24.017Z,99054.78
2022-12-14T17:12:52.073Z,99059.19
2022-12-14T17:15:21.758Z,99059.19
2022-12-14T17:17:53.381Z,99056.66
2022-12-14T17:20:29.892Z,99057.53
2022-12-14T17:22:58.623Z,99058.47
2022-12-14T17:25:30.398Z,99071.22
2022-12-14T17:27:57.107Z,99063.69
2022-12-14T17:30:24.387Z,99067.16
2022-12-14T17:32:53.331Z,99075.66
2022-12-14T17:35:26.017Z,99074.81
2022-12-14T17:37:52.561Z,99081.66
2022-12-14T17:40:19.274Z,99074.69
2022-12-14T17:42:51.318Z,99072.22
2022-12-14T17:45:22.359Z,99074.75
2022-12-14T17:47:49.073Z,99073.84
2022-12-14T17:50:17.079Z,99074.81
2022-12-14T17:52:43.904Z,99067.94
2022-12-14T17:55:19.251Z,99066.13
2022-12-14T17:57:47.149Z,99065.41
2022-12-14T18:00:44.088Z,99069.56
2022-12-14T18:03:12.643Z,99068.69
2022-12-14T18:05:46.451Z,99067.97
2022-12-14T18:08:16.866Z,99078.47
2022-12-14T18:10:43.966Z,99073.41
2022-12-14T18:13:12.297Z,99073.50
2022-12-14T18:15:42.407Z,99077.59
2022-12-14T18:18:09.031Z,99084.34
2022-12-14T18:20:37.093Z,99080.94
2022-12-14T18:23:03.999Z,99079.13
2022-12-14T18:25:40.575Z,99073.09
2022-12-14T18:28:11.455Z,99074.84
2022-12-14T18:30:45.982Z,99081.06
2022-12-14T18:33:18.523Z,99094.06
2022-12-14T18:35:46.091Z,99097.28
2022-12-14T18:38:12.863Z,99103.19
2022-12-14T18:40:41.895Z,99114.22
2022-12-14T18:43:21.165Z,99115.06
2022-12-14T18:45:47.709Z,99112.50
2022-12-14T18:48:14.465Z,99111.59
2022-12-14T18:50:43.074Z,99109.03
2022-12-14T18:53:15.333Z,99110.00
2022-12-14T18:55:42.612Z,99116.19
2022-12-14T18:58:15.310Z,99123.84
2022-12-14T19:00:41.893Z,99129.84
2022-12-14T19:03:08.526Z,99125.56
2022-12-14T19:05:35.144Z,99138.44
2022-12-14T19:08:01.749Z,99140.13
2022-12-14T19:10:31.830Z,99141.75
2022-12-14T19:12:58.761Z,99140.84
2022-12-14T19:15:31.295Z,99151.91
2022-12-14T19:17:58.181Z,99151.03
2022-12-14T19:20:25.907Z,99158.72
2022-12-14T19:22:53.022Z,99159.56
2022-12-14T19:25:22.708Z,99163.88
2022-12-14T19:30:36.906Z,99159.59
2022-12-14T19:33:03.856Z,99160.44
2022-12-14T19:35:31.711Z,99166.53
2022-12-14T19:37:58.803Z,99163.13
2022-12-14T19:40:26.197Z,99164.72
2022-12-14T19:42:52.686Z,99164.72
2022-12-14T19:45:20.040Z,99166.56
2022-12-14T19:47:46.529Z,99168.28
2022-12-14T19:50:15.083Z,99169.03
2022-12-14T19:52:43.177Z,99167.28
2022-12-14T19:55:11.234Z,99171.50
2022-12-14T19:57:39.488Z,99163.03
2022-12-14T20:00:08.077Z,99167.34
2022-12-14T20:02:38.281Z,99174.97
2022-12-14T20:05:05.762Z,99172.53
2022-12-14T20:07:32.267Z,99166.59
2022-12-14T20:09:58.745Z,99170.81
2022-12-14T20:12:25.384Z,99173.41
2022-12-14T20:14:51.890Z,99179.31
2022-12-14T20:17:18.390Z,99176.75
2022-12-14T20:19:45.173Z,99175.97
2022-12-14T20:22:14.590Z,99173.41
2022-12-14T20:24:42.217Z,99186.16
2022-12-14T20:27:08.713Z,99178.53
2022-12-14T20:29:35.167Z,99185.44
2022-12-14T20:32:02.190Z,99176.91
2022-12-14T20:34:29.179Z,99182.88
2022-12-14T20:36:55.874Z,99186.31
2022-12-14T20:39:22.464Z,99185.44
2022-12-14T20:41:49.134Z,99185.47
2022-12-14T20:44:16.174Z,99193.13
2022-12-14T20:46:45.516Z,99186.31
2022-12-14T20:49:15.278Z,99189.72
2022-12-14T20:51:42.722Z,99193.97
2022-12-14T20:54:12.896Z,99202.47
2022-12-14T20:56:40.049Z,99207.56
2022-12-14T20:59:08.409Z,99211.84
2022-12-14T21:01:39.975Z,99202.53
2022-12-14T21:04:07.120Z,99203.34
2022-12-14T21:06:38.013Z,99217.03
2022-12-14T21:09:05.640Z,99212.72
2022-12-14T21:11:55.514Z,99214.47
2022-12-14T21:14:24.606Z,99217.03
2022-12-14T21:16:51.583Z,99223.00
2022-12-14T21:19:18.182Z,99226.38
2022-12-14T21:21:49.898Z,99223.00
2022-12-14T21:24:37.468Z,99231.59
2022-12-14T21:27:08.499Z,99235.84
2022-12-14T21:29:35.093Z,99234.09
2022-12-14T21:32:01.637Z,99221.28
2022-12-14T21:34:28.146Z,99227.25
2022-12-14T21:36:54.586Z,99232.38
2022-12-14T21:39:21.068Z,99230.69
2022-12-14T21:42:06.231Z,99236.59
2022-12-14T21:44:36.323Z,99228.94
2022-12-14T21:47:05.383Z,99211.91
2022-12-14T21:49:31.773Z,99215.34
2022-12-14T21:51:58.619Z,99224.69
2022-12-14T21:54:26.072Z,99221.28
2022-12-14T21:57:11.801Z,99233.19
2022-12-14T21:59:46.332Z,99233.19
2022-12-14T22:02:21.905Z,99231.50
2022-12-14T22:04:49.468Z,99240.84
2022-12-14T22:07:18.010Z,99229.81
2022-12-14T22:09:45.324Z,99230.66
2022-12-14T22:12:18.182Z,99233.22
2022-12-14T22:14:44.637Z,99237.53
2022-12-14T22:17:13.504Z,99238.38
2022-12-14T22:19:41.082Z,99235.84
2022-12-14T22:22:15.064Z,99257.13
2022-12-14T22:24:43.163Z,99251.19
2022-12-14T22:27:11.558Z,99257.19
2022-12-14T22:29:38.171Z,99260.56
2022-12-14T22:32:05.345Z,99268.22
2022-12-14T22:34:31.814Z,99261.41
2022-12-14T22:36:58.323Z,99265.63
2022-12-14T22:39:24.814Z,99262.25
2022-12-14T22:41:51.304Z,99259.72
2022-12-14T22:44:17.920Z,99255.50
2022-12-14T22:46:44.420Z,99253.78
2022-12-14T22:49:16.474Z,99256.34
2022-12-14T22:51:43.239Z,99257.19
2022-12-14T22:54:17.021Z,99262.31
2022-12-14T22:56:48.502Z,99247.00
2022-12-14T22:59:19.527Z,99258.91
2022-12-14T23:01:49.927Z,99252.09
2022-12-14T23:04:18.156Z,99257.22
2022-12-14T23:06:44.922Z,99251.25
2022-12-14T23:09:30.185Z,99256.34
2022-12-14T23:12:21.322Z,99245.28
2022-12-14T23:15:07.592Z,99251.25
2022-12-14T23:17:53.191Z,99240.19
2022-12-14T23:20:38.385Z,99235.09
2022-12-14T23:23:24.959Z,99252.94
2022-12-14T23:26:10.142Z,99268.22
2022-12-14T23:28:55.250Z,99258.06
2022-12-14T23:31:40.436Z,99257.22
2022-12-14T23:34:25.474Z,99276.75
2022-12-14T23:37:13.724Z,99289.50
2022-12-14T23:40:01.647Z,99292.03
2022-12-14T23:42:47.350Z,99290.31
2022-12-14T23:45:32.786Z,99292.03
2022-12-14T23:48:18.134Z,99281.81
2022-12-14T23:51:04.081Z,99275.88
2022-12-14T23:53:49.967Z,99275.03
2022-12-14T23:56:35.573Z,99281.00
2022-12-14T23:59:24.974Z,99269.06
